CheckWX is a tool to help pilots better visualize weather data.  It is not intended as a substitute for an official pre-flight weather briefing.

02:15:17 UTC

KHNB TAF
Huntingburg Airport
Huntingburg, Indiana, USA
KHNB 222331Z 2300/2324 19009KT P6SM SCT250 FM231500 24011KT P6SM BKN050 PROB30 2319/2321 5SM -TSRA BKN025CB FM232100 29009KT P6SM BKN035 PROB30 2321/2324 6SM -SHRA BKN025

Apr-23@
00:00 UTC

Apr-23 @ 00:00 UTC

Apr-23@
15:00 UTC

Apr-23 @ 15:00 UTC

KHNB 222331Z 2300/2324 19009KT P6SM SCT250
Wind
  • 190° at 9 KTS
Cloud Levels
  • Scattered at 25,000' AGL

Apr-23@
15:00 UTC

Apr-23 @ 15:00 UTC

Apr-23@
21:00 UTC

Apr-23 @ 21:00 UTC

FM231500 24011KT P6SM BKN050

From

From Standard forecast or significant change

Wind
  • 240° at 11 KTS
Cloud Levels
  • Broken at 5,000' AGL

Apr-23@
19:00 UTC

Apr-23 @ 19:00 UTC

Apr-23@
21:00 UTC

Apr-23 @ 21:00 UTC

PROB30 2319/2321 5SM -TSRA BKN025CB

Probable - 30% Likelihood

Probable - 30% Likelihood during this time.

Conditions
Light Thunderstorm, Light Rain
Cloud Levels
  • Broken at 2,500' AGL

Apr-23@
21:00 UTC

Apr-23 @ 21:00 UTC

Apr-24@
00:00 UTC

Apr-24 @ 00:00 UTC

PROB30 2321/2324 6SM -SHRA BKN025

Probable - 30% Likelihood

Probable - 30% Likelihood during this time.

Conditions
Light Rain
Cloud Levels
  • Broken at 2,500' AGL

Apr-23@
21:00 UTC

Apr-23 @ 21:00 UTC

Apr-24@
00:00 UTC

Apr-24 @ 00:00 UTC

FM232100 29009KT P6SM BKN035

From

From Standard forecast or significant change

Wind
  • 290° at 9 KTS
Cloud Levels
  • Broken at 3,500' AGL